RYR1309 LIEE-LEIB
Flight info
| Callsign | RYR1309 |
|---|---|
| Flight time | N/A |
| Altitude | 33000 |
| Route | CAR DCT TABOT DCT CIRTA/N0465F340 DCT KAMER DCT DOLIS DCT OTARO/N0464F350 DCT XESPA DCT OLMIR/N0463F340 DCT INSUB |
| Aircraft | B738/M-SDE2E3FGHIRWXY/LB1 |
Departure
| Time | 2026-05-08 11:38 |
|---|---|
| Airport | Cagliari Elmas Airport (LIEE) |
Arrival
| Time | N/A |
|---|---|
| Airport | Ibiza Airport (LEIB) |
| Time | Latitude | Longitude | Altitude | Speed | Heading |
|---|---|---|---|---|---|
| 2026-05-08 11:09 | 39.25338 | 9.05839 | 14 ft | 0 kts | 142° |
| 2026-05-08 11:30 | 39.25339 | 9.05838 | -11 ft | 1 kts | 142° |
| 2026-05-08 11:30 | 39.25351 | 9.05826 | -3 ft | 3 kts | 142° |
| 2026-05-08 11:30 | 39.25366 | 9.05812 | 25 ft | 2 kts | 142° |
| 2026-05-08 11:30 | 39.25381 | 9.05800 | 14 ft | 3 kts | 173° |
| 2026-05-08 11:31 | 39.25400 | 9.05802 | 14 ft | 3 kts | 203° |
| 2026-05-08 11:31 | 39.25416 | 9.05815 | 18 ft | 3 kts | 224° |
| 2026-05-08 11:31 | 39.25425 | 9.05827 | 17 ft | 1 kts | 231° |
| 2026-05-08 11:31 | 39.25426 | 9.05829 | 17 ft | 0 kts | 231° |
| 2026-05-08 11:34 | 39.25417 | 9.05815 | 18 ft | 5 kts | 231° |
| 2026-05-08 11:34 | 39.25377 | 9.05749 | 14 ft | 15 kts | 231° |
| 2026-05-08 11:34 | 39.25350 | 9.05660 | 14 ft | 6 kts | 304° |
| 2026-05-08 11:34 | 39.25379 | 9.05605 | 14 ft | 10 kts | 298° |
| 2026-05-08 11:35 | 39.25408 | 9.05462 | 14 ft | 23 kts | 287° |
| 2026-05-08 11:35 | 39.25516 | 9.05275 | 14 ft | 29 kts | 316° |
| 2026-05-08 11:35 | 39.25666 | 9.05102 | 14 ft | 28 kts | 319° |
| 2026-05-08 11:35 | 39.25807 | 9.04939 | 14 ft | 26 kts | 318° |
| 2026-05-08 11:36 | 39.25938 | 9.04787 | 14 ft | 24 kts | 318° |
| 2026-05-08 11:36 | 39.26059 | 9.04646 | 14 ft | 23 kts | 318° |
| 2026-05-08 11:36 | 39.26124 | 9.04479 | 14 ft | 21 kts | 270° |
| 2026-05-08 11:36 | 39.26033 | 9.04405 | 14 ft | 18 kts | 145° |
| 2026-05-08 11:37 | 39.26008 | 9.04432 | 14 ft | 0 kts | 138° |
| 2026-05-08 11:37 | 39.26004 | 9.04436 | 14 ft | 4 kts | 138° |
| 2026-05-08 11:37 | 39.25764 | 9.04715 | 15 ft | 106 kts | 138° |
| 2026-05-08 11:37 | 39.24975 | 9.05614 | 471 ft | 176 kts | 141° |
| 2026-05-08 11:38 | 39.23945 | 9.06765 | 1671 ft | 207 kts | 137° |
| 2026-05-08 11:38 | 39.22817 | 9.08039 | 2811 ft | 227 kts | 138° |
| 2026-05-08 11:38 | 39.21618 | 9.09379 | 3994 ft | 226 kts | 137° |
| 2026-05-08 11:38 | 39.20472 | 9.10735 | 5221 ft | 208 kts | 136° |
| 2026-05-08 11:39 | 39.19457 | 9.11943 | 6580 ft | 210 kts | 137° |
| 2026-05-08 11:39 | 39.18254 | 9.13294 | 6995 ft | 247 kts | 147° |
| 2026-05-08 11:39 | 39.16516 | 9.13924 | 7493 ft | 275 kts | 185° |
| 2026-05-08 11:39 | 39.14731 | 9.13073 | 8610 ft | 278 kts | 219° |
| 2026-05-08 11:40 | 39.13535 | 9.11152 | 9863 ft | 279 kts | 246° |
| 2026-05-08 11:40 | 39.13166 | 9.09555 | 10511 ft | 285 kts | 260° |
| 2026-05-08 11:40 | 39.13019 | 9.06887 | 10943 ft | 315 kts | 270° |
| 2026-05-08 11:40 | 39.13133 | 9.02904 | 11311 ft | 354 kts | 273° |
| 2026-05-08 11:41 | 39.13276 | 8.99679 | 12103 ft | 363 kts | 272° |
| 2026-05-08 11:41 | 39.13408 | 8.96435 | 13202 ft | 362 kts | 272° |
| 2026-05-08 11:41 | 39.13486 | 8.94231 | 13911 ft | 364 kts | 272° |
| 2026-05-08 11:41 | 39.13584 | 8.91003 | 14764 ft | 367 kts | 271° |
| 2026-05-08 11:42 | 39.13667 | 8.87705 | 15632 ft | 369 kts | 271° |
| 2026-05-08 11:42 | 39.13740 | 8.84393 | 16521 ft | 371 kts | 271° |
| 2026-05-08 11:42 | 39.13807 | 8.81047 | 17311 ft | 376 kts | 271° |
| 2026-05-08 11:42 | 39.13871 | 8.77674 | 18180 ft | 378 kts | 271° |
| 2026-05-08 11:43 | 39.13931 | 8.74290 | 18976 ft | 379 kts | 270° |
| 2026-05-08 11:43 | 39.13990 | 8.70891 | 19701 ft | 381 kts | 270° |
| 2026-05-08 11:43 | 39.14049 | 8.67454 | 20374 ft | 385 kts | 270° |
| 2026-05-08 11:43 | 39.14106 | 8.63990 | 21093 ft | 387 kts | 270° |
| 2026-05-08 11:44 | 39.14164 | 8.60511 | 21782 ft | 389 kts | 270° |
| 2026-05-08 11:44 | 39.14220 | 8.57018 | 22452 ft | 392 kts | 270° |
| 2026-05-08 11:44 | 39.14276 | 8.53487 | 23054 ft | 395 kts | 270° |
| 2026-05-08 11:44 | 39.14332 | 8.49933 | 23645 ft | 398 kts | 270° |
| 2026-05-08 11:45 | 39.14386 | 8.46405 | 24119 ft | 401 kts | 270° |
| 2026-05-08 11:45 | 39.14440 | 8.42787 | 24605 ft | 404 kts | 270° |
| 2026-05-08 11:45 | 39.14493 | 8.39159 | 25086 ft | 406 kts | 270° |
| 2026-05-08 11:45 | 39.14546 | 8.35511 | 25556 ft | 408 kts | 270° |
| 2026-05-08 11:46 | 39.14598 | 8.31844 | 26000 ft | 411 kts | 270° |
| 2026-05-08 11:46 | 39.14649 | 8.28153 | 26417 ft | 414 kts | 269° |
| 2026-05-08 11:46 | 39.14699 | 8.24436 | 26848 ft | 416 kts | 269° |
| 2026-05-08 11:46 | 39.14748 | 8.20700 | 27298 ft | 418 kts | 269° |
| 2026-05-08 11:47 | 39.14796 | 8.16939 | 27700 ft | 420 kts | 269° |
| 2026-05-08 11:47 | 39.14843 | 8.13210 | 28069 ft | 423 kts | 269° |
| 2026-05-08 11:47 | 39.14890 | 8.09410 | 28460 ft | 425 kts | 269° |
| 2026-05-08 11:47 | 39.14936 | 8.05614 | 28993 ft | 423 kts | 269° |
| 2026-05-08 11:48 | 39.14971 | 8.01830 | 29598 ft | 420 kts | 268° |
| 2026-05-08 11:48 | 39.14768 | 7.98094 | 30183 ft | 417 kts | 260° |
| 2026-05-08 11:48 | 39.14223 | 7.94445 | 30771 ft | 412 kts | 258° |
| 2026-05-08 11:48 | 39.13660 | 7.90870 | 31492 ft | 404 kts | 258° |
| 2026-05-08 11:49 | 39.13109 | 7.87361 | 32274 ft | 395 kts | 258° |
| 2026-05-08 11:49 | 39.12572 | 7.83909 | 32815 ft | 392 kts | 258° |
| 2026-05-08 11:49 | 39.12040 | 7.80466 | 33011 ft | 392 kts | 258° |
| 2026-05-08 11:50 | 39.10982 | 7.73580 | 33032 ft | 392 kts | 258° |
| 2026-05-08 11:50 | 39.09932 | 7.66746 | 33026 ft | 391 kts | 257° |
| 2026-05-08 11:51 | 39.08872 | 7.59867 | 33027 ft | 392 kts | 257° |
| 2026-05-08 11:51 | 39.07807 | 7.52982 | 33022 ft | 392 kts | 257° |
| 2026-05-08 11:52 | 39.06738 | 7.46094 | 33023 ft | 392 kts | 257° |
| 2026-05-08 11:52 | 39.05665 | 7.39216 | 33016 ft | 392 kts | 257° |
| 2026-05-08 11:53 | 39.04592 | 7.32367 | 33023 ft | 393 kts | 257° |
| 2026-05-08 11:53 | 39.03508 | 7.25472 | 33017 ft | 393 kts | 257° |
| 2026-05-08 11:54 | 39.02421 | 7.18581 | 33024 ft | 393 kts | 257° |
| 2026-05-08 11:54 | 39.01328 | 7.11680 | 33015 ft | 394 kts | 257° |
| 2026-05-08 11:55 | 39.00247 | 7.04768 | 33021 ft | 395 kts | 259° |
| 2026-05-08 11:55 | 38.99976 | 6.97738 | 33020 ft | 398 kts | 267° |
| 2026-05-08 11:56 | 39.00027 | 6.90609 | 33018 ft | 399 kts | 267° |
| 2026-05-08 11:56 | 39.00058 | 6.83458 | 33017 ft | 400 kts | 267° |
| 2026-05-08 11:57 | 39.00075 | 6.76303 | 33020 ft | 400 kts | 267° |
| 2026-05-08 11:57 | 39.00085 | 6.69125 | 33016 ft | 401 kts | 267° |
| 2026-05-08 11:58 | 39.00091 | 6.61989 | 33022 ft | 402 kts | 267° |
| 2026-05-08 11:58 | 39.00092 | 6.54783 | 33016 ft | 402 kts | 266° |
| 2026-05-08 11:59 | 39.00087 | 6.43976 | 33020 ft | 403 kts | 266° |
| 2026-05-08 11:59 | 39.00077 | 6.36776 | 33020 ft | 403 kts | 266° |
| 2026-05-08 12:00 | 39.00064 | 6.29605 | 33022 ft | 403 kts | 266° |
| 2026-05-08 12:00 | 39.00045 | 6.22399 | 33020 ft | 403 kts | 266° |
| 2026-05-08 12:01 | 39.00024 | 6.15186 | 33019 ft | 403 kts | 266° |
| 2026-05-08 12:01 | 38.99998 | 6.08006 | 33020 ft | 403 kts | 266° |
| 2026-05-08 12:02 | 39.00008 | 6.00790 | 33020 ft | 404 kts | 267° |
| 2026-05-08 12:02 | 39.00030 | 5.93558 | 33022 ft | 404 kts | 267° |
| 2026-05-08 12:03 | 39.00044 | 5.86331 | 33018 ft | 404 kts | 267° |
| 2026-05-08 12:03 | 39.00051 | 5.79156 | 33018 ft | 404 kts | 266° |
| 2026-05-08 12:04 | 39.00053 | 5.71929 | 33017 ft | 404 kts | 266° |
| 2026-05-08 12:04 | 39.00050 | 5.64702 | 33020 ft | 404 kts | 266° |
| 2026-05-08 12:05 | 39.00043 | 5.57484 | 33021 ft | 404 kts | 266° |
| 2026-05-08 12:05 | 39.00031 | 5.50260 | 33017 ft | 404 kts | 266° |
| 2026-05-08 12:06 | 39.00016 | 5.43035 | 33020 ft | 404 kts | 266° |
| 2026-05-08 12:06 | 38.99998 | 5.35859 | 33017 ft | 404 kts | 266° |
| 2026-05-08 12:07 | 39.00012 | 5.28629 | 33014 ft | 404 kts | 266° |
| 2026-05-08 12:07 | 39.00032 | 5.21403 | 33014 ft | 403 kts | 266° |
| 2026-05-08 12:08 | 39.00044 | 5.14190 | 33015 ft | 403 kts | 266° |
| 2026-05-08 12:08 | 39.00049 | 5.06984 | 33019 ft | 403 kts | 266° |
| 2026-05-08 12:09 | 39.00049 | 4.99826 | 33016 ft | 403 kts | 266° |
| 2026-05-08 12:09 | 39.00045 | 4.92619 | 33020 ft | 403 kts | 266° |
| 2026-05-08 12:10 | 39.00037 | 4.85418 | 33017 ft | 403 kts | 266° |
| 2026-05-08 12:10 | 39.00025 | 4.78214 | 33019 ft | 403 kts | 265° |
| 2026-05-08 12:11 | 38.99972 | 4.71014 | 33010 ft | 401 kts | 262° |
| 2026-05-08 12:11 | 38.98943 | 4.64089 | 33016 ft | 396 kts | 250° |
| 2026-05-08 12:12 | 38.97203 | 4.57372 | 33014 ft | 396 kts | 250° |
| 2026-05-08 12:12 | 38.95466 | 4.50643 | 33012 ft | 396 kts | 250° |
| 2026-05-08 12:13 | 38.93737 | 4.43907 | 33014 ft | 396 kts | 250° |
| 2026-05-08 12:13 | 38.92023 | 4.37220 | 33013 ft | 397 kts | 250° |
| 2026-05-08 12:14 | 38.90296 | 4.30489 | 33010 ft | 397 kts | 250° |
| 2026-05-08 12:14 | 38.88566 | 4.23767 | 33011 ft | 397 kts | 250° |
| 2026-05-08 12:15 | 38.86830 | 4.17039 | 33009 ft | 396 kts | 250° |
| 2026-05-08 12:15 | 38.85091 | 4.10321 | 33007 ft | 396 kts | 250° |
| 2026-05-08 12:16 | 38.83347 | 4.03599 | 33010 ft | 396 kts | 250° |
| 2026-05-08 12:16 | 38.81612 | 3.96933 | 33009 ft | 397 kts | 249° |
| 2026-05-08 12:17 | 38.79861 | 3.90221 | 33004 ft | 397 kts | 249° |
| 2026-05-08 12:17 | 38.78142 | 3.83650 | 33008 ft | 397 kts | 249° |
| 2026-05-08 12:18 | 38.76392 | 3.76975 | 33004 ft | 397 kts | 249° |
| 2026-05-08 12:18 | 38.74914 | 3.71355 | 33002 ft | 397 kts | 249° |
| 2026-05-08 12:19 | 38.73190 | 3.64812 | 33005 ft | 397 kts | 249° |
| 2026-05-08 12:19 | 38.71420 | 3.58115 | 33005 ft | 397 kts | 249° |
| 2026-05-08 12:20 | 38.69649 | 3.51427 | 33000 ft | 397 kts | 249° |
| 2026-05-08 12:20 | 38.67874 | 3.44744 | 32997 ft | 396 kts | 249° |
| 2026-05-08 12:21 | 38.66107 | 3.38109 | 32996 ft | 396 kts | 249° |
| 2026-05-08 12:21 | 38.64325 | 3.31435 | 32993 ft | 396 kts | 249° |
| 2026-05-08 12:22 | 38.62543 | 3.24776 | 32989 ft | 396 kts | 249° |
| 2026-05-08 12:22 | 38.60758 | 3.18124 | 32990 ft | 395 kts | 249° |
| 2026-05-08 12:23 | 38.59345 | 3.11328 | 32983 ft | 399 kts | 258° |
| 2026-05-08 12:23 | 38.58652 | 3.04294 | 32984 ft | 399 kts | 259° |
| 2026-05-08 12:24 | 38.57937 | 2.97260 | 32980 ft | 399 kts | 258° |
| 2026-05-08 12:24 | 38.57207 | 2.90238 | 32984 ft | 399 kts | 258° |
| 2026-05-08 12:25 | 38.56468 | 2.83217 | 32981 ft | 398 kts | 258° |
| 2026-05-08 12:25 | 38.55730 | 2.76243 | 32983 ft | 398 kts | 258° |
| 2026-05-08 12:26 | 38.54983 | 2.69227 | 32980 ft | 398 kts | 258° |
| 2026-05-08 12:26 | 38.54232 | 2.62207 | 32974 ft | 399 kts | 258° |
| 2026-05-08 12:27 | 38.53475 | 2.55174 | 32977 ft | 399 kts | 258° |
| 2026-05-08 12:27 | 38.53174 | 2.48074 | 32978 ft | 404 kts | 268° |
| 2026-05-08 12:28 | 38.53437 | 2.40896 | 32977 ft | 405 kts | 268° |
| 2026-05-08 12:28 | 38.53683 | 2.33754 | 32976 ft | 405 kts | 267° |
| 2026-05-08 12:29 | 38.53912 | 2.26566 | 32979 ft | 405 kts | 267° |
| 2026-05-08 12:29 | 38.54131 | 2.19378 | 32976 ft | 405 kts | 267° |
| 2026-05-08 12:30 | 38.54310 | 2.13477 | 32960 ft | 386 kts | 267° |
| 2026-05-08 12:30 | 38.54414 | 2.10151 | 32960 ft | 366 kts | 267° |
| 2026-05-08 12:30 | 38.54511 | 2.06977 | 32960 ft | 349 kts | 266° |
| 2026-05-08 12:31 | 38.54599 | 2.03949 | 32958 ft | 334 kts | 266° |
| 2026-05-08 12:31 | 38.54683 | 2.01038 | 32960 ft | 319 kts | 266° |
| 2026-05-08 12:31 | 38.54761 | 1.98262 | 32966 ft | 306 kts | 266° |
| 2026-05-08 12:31 | 38.54835 | 1.95602 | 32962 ft | 293 kts | 266° |
| 2026-05-08 12:32 | 38.54904 | 1.93074 | 32967 ft | 282 kts | 265° |
| 2026-05-08 12:32 | 38.54970 | 1.90629 | 32967 ft | 270 kts | 265° |
| 2026-05-08 12:32 | 38.55035 | 1.88264 | 32958 ft | 259 kts | 265° |
| 2026-05-08 12:32 | 38.55096 | 1.86018 | 32964 ft | 248 kts | 265° |
| 2026-05-08 12:33 | 38.55154 | 1.83846 | 32967 ft | 244 kts | 265° |
| 2026-05-08 12:33 | 38.55208 | 1.81663 | 32990 ft | 254 kts | 265° |
| 2026-05-08 12:33 | 38.55269 | 1.79365 | 32998 ft | 264 kts | 268° |
| 2026-05-08 12:33 | 38.55776 | 1.77034 | 32987 ft | 282 kts | 288° |
| 2026-05-08 12:34 | 38.56916 | 1.74917 | 32979 ft | 298 kts | 303° |
| 2026-05-08 12:34 | 38.58614 | 1.73269 | 32983 ft | 317 kts | 320° |
| 2026-05-08 12:34 | 38.62670 | 1.70842 | 32986 ft | 323 kts | 324° |
| 2026-05-08 12:35 | 38.66765 | 1.68484 | 32979 ft | 322 kts | 323° |
| 2026-05-08 12:35 | 38.70770 | 1.66095 | 32985 ft | 321 kts | 323° |
| 2026-05-08 12:36 | 38.74335 | 1.63104 | 33006 ft | 288 kts | 295° |
| 2026-05-08 12:36 | 38.75252 | 1.60950 | 33003 ft | 273 kts | 282° |
| 2026-05-08 12:36 | 38.75906 | 1.58672 | 32988 ft | 272 kts | 280° |
| 2026-05-08 12:37 | 38.76527 | 1.56375 | 33000 ft | 272 kts | 280° |
| 2026-05-08 12:37 | 38.77153 | 1.54074 | 32992 ft | 273 kts | 280° |
| 2026-05-08 12:37 | 38.77789 | 1.51776 | 33003 ft | 275 kts | 281° |
| 2026-05-08 12:37 | 38.78434 | 1.49467 | 32989 ft | 276 kts | 281° |
| 2026-05-08 12:38 | 38.79083 | 1.47148 | 32997 ft | 276 kts | 281° |
| 2026-05-08 12:38 | 38.79647 | 1.44809 | 32982 ft | 269 kts | 269° |
| 2026-05-08 12:38 | 38.79618 | 1.42489 | 33001 ft | 260 kts | 256° |
| 2026-05-08 12:38 | 38.79093 | 1.40295 | 33003 ft | 257 kts | 243° |
| 2026-05-08 12:39 | 38.78283 | 1.38249 | 32994 ft | 257 kts | 240° |
| 2026-05-08 12:39 | 38.77424 | 1.36234 | 32999 ft | 258 kts | 240° |
| 2026-05-08 12:39 | 38.76565 | 1.34208 | 32997 ft | 258 kts | 241° |
| 2026-05-08 12:39 | 38.75716 | 1.32181 | 32993 ft | 259 kts | 241° |
| 2026-05-08 12:40 | 38.74876 | 1.30165 | 32993 ft | 259 kts | 241° |
| 2026-05-08 12:40 | 38.74029 | 1.28125 | 32992 ft | 259 kts | 241° |
| 2026-05-08 12:40 | 38.73181 | 1.26088 | 32990 ft | 259 kts | 241° |
| 2026-05-08 12:40 | 38.72333 | 1.24055 | 32990 ft | 259 kts | 241° |
| 2026-05-08 12:41 | 38.71485 | 1.22022 | 32992 ft | 258 kts | 241° |
| 2026-05-08 12:41 | 38.70639 | 1.19993 | 32991 ft | 258 kts | 241° |
| 2026-05-08 12:41 | 38.69794 | 1.17970 | 32988 ft | 258 kts | 241° |
| 2026-05-08 12:41 | 38.68946 | 1.15941 | 32986 ft | 257 kts | 241° |